Rosebud, New Mexico
Current Conditions -  °F | °C
As of 3:34 AM on Thursday 18 Dec 2014 (Local Time) from KDHT Reporting Station
Haze Haze  
Wind Chill: 22°   Ceiling: 300
Heat Index: 31°   Visibility: 2mi
Dew Point: 29°   Wind: 10mph
Humidity: 92%   Direction: 360°N
Pressure: 30.03"   Gusts: NA
Location:  35.8947°N, 103.215°W
Report Text: KDHT 181034Z AUTO 36009KT 2SM BR OVC003 M01/M02 A3003 RMK AO2 T10061017
Loading
Personal Weather Stations






























Interactive Weather Map New forecast layout! Learn more

10-Day Weather Forecast

Advertisements
Track Severe Weather on mobile